sensor_id;sensor_type;location;lat;lon;timestamp;pressure;altitude;pressure_sealevel;temperature;humidity
29163;BME280;20331;53.144;8.208;2022-07-23T00:06:42;101664.16;;;17.41;84.74
29163;BME280;20331;53.144;8.208;2022-07-23T00:17:03;101665.03;;;17.42;83.21
29163;BME280;20331;53.144;8.208;2022-07-23T00:27:25;101680.59;;;17.34;83.73
29163;BME280;20331;53.144;8.208;2022-07-23T00:37:47;101676.28;;;17.44;84.97
29163;BME280;20331;53.144;8.208;2022-07-23T00:48:09;101649.56;;;17.16;89.79
29163;BME280;20331;53.144;8.208;2022-07-23T00:58:31;101665.00;;;17.20;87.27
29163;BME280;20331;53.144;8.208;2022-07-23T01:08:54;101653.41;;;17.23;90.80
29163;BME280;20331;53.144;8.208;2022-07-23T01:19:17;101646.06;;;16.82;91.55
29163;BME280;20331;53.144;8.208;2022-07-23T01:29:39;101650.97;;;16.87;92.83
29163;BME280;20331;53.144;8.208;2022-07-23T01:40:00;101633.88;;;16.92;89.25
29163;BME280;20331;53.144;8.208;2022-07-23T01:50:23;101647.75;;;16.94;90.66
29163;BME280;20331;53.144;8.208;2022-07-23T02:00:45;101628.47;;;16.83;93.96
29163;BME280;20331;53.144;8.208;2022-07-23T02:11:06;101613.50;;;16.61;94.43
29163;BME280;20331;53.144;8.208;2022-07-23T02:21:28;101605.72;;;16.49;94.60
29163;BME280;20331;53.144;8.208;2022-07-23T02:31:50;101603.91;;;16.39;96.67
29163;BME280;20331;53.144;8.208;2022-07-23T02:42:12;101600.47;;;16.26;91.29
29163;BME280;20331;53.144;8.208;2022-07-23T02:52:33;101599.06;;;15.98;95.06
29163;BME280;20331;53.144;8.208;2022-07-23T03:02:55;101605.22;;;15.75;98.06
29163;BME280;20331;53.144;8.208;2022-07-23T03:13:16;101597.00;;;15.91;97.08
29163;BME280;20331;53.144;8.208;2022-07-23T03:23:38;101598.97;;;16.00;93.51
29163;BME280;20331;53.144;8.208;2022-07-23T03:34:00;101601.94;;;15.95;96.08
29163;BME280;20331;53.144;8.208;2022-07-23T03:44:22;101605.59;;;15.82;94.65
29163;BME280;20331;53.144;8.208;2022-07-23T03:54:44;101606.31;;;15.84;96.90
29163;BME280;20331;53.144;8.208;2022-07-23T04:05:06;101604.81;;;15.69;98.53
29163;BME280;20331;53.144;8.208;2022-07-23T04:15:28;101607.94;;;15.74;94.24
29163;BME280;20331;53.144;8.208;2022-07-23T04:25:49;101601.78;;;15.86;97.29
29163;BME280;20331;53.144;8.208;2022-07-23T04:36:11;101595.25;;;15.44;98.05
29163;BME280;20331;53.144;8.208;2022-07-23T04:46:32;101613.78;;;15.31;100.00
29163;BME280;20331;53.144;8.208;2022-07-23T04:56:54;101616.22;;;15.57;98.82
29163;BME280;20331;53.144;8.208;2022-07-23T05:07:16;101625.06;;;15.56;99.62
29163;BME280;20331;53.144;8.208;2022-07-23T05:17:37;101611.75;;;15.70;98.93
29163;BME280;20331;53.144;8.208;2022-07-23T05:27:59;101618.69;;;15.71;97.60
29163;BME280;20331;53.144;8.208;2022-07-23T05:38:20;101625.34;;;16.22;96.77
29163;BME280;20331;53.144;8.208;2022-07-23T05:48:42;101635.41;;;16.28;95.23
29163;BME280;20331;53.144;8.208;2022-07-23T05:59:03;101643.16;;;16.63;91.28
29163;BME280;20331;53.144;8.208;2022-07-23T06:09:26;101650.38;;;17.05;88.06
29163;BME280;20331;53.144;8.208;2022-07-23T06:19:47;101655.19;;;17.11;86.91
29163;BME280;20331;53.144;8.208;2022-07-23T06:30:09;101673.53;;;17.24;86.48
29163;BME280;20331;53.144;8.208;2022-07-23T06:40:31;101683.50;;;17.31;84.60
29163;BME280;20331;53.144;8.208;2022-07-23T06:50:52;101679.47;;;17.26;86.91
29163;BME280;20331;53.144;8.208;2022-07-23T07:01:14;101685.25;;;17.41;84.66
29163;BME280;20331;53.144;8.208;2022-07-23T07:11:35;101690.63;;;17.07;86.81
29163;BME280;20331;53.144;8.208;2022-07-23T07:21:57;101698.97;;;16.68;91.52
29163;BME280;20331;53.144;8.208;2022-07-23T07:32:18;101709.72;;;16.65;94.52
29163;BME280;20331;53.144;8.208;2022-07-23T07:43:00;101700.50;;;16.60;94.92
29163;BME280;20331;53.144;8.208;2022-07-23T07:53:22;101720.03;;;16.68;91.65
29163;BME280;20331;53.144;8.208;2022-07-23T08:03:46;101721.75;;;16.91;89.41
29163;BME280;20331;53.144;8.208;2022-07-23T08:14:07;101736.50;;;17.16;87.94
29163;BME280;20331;53.144;8.208;2022-07-23T08:24:30;101739.31;;;17.36;84.99
29163;BME280;20331;53.144;8.208;2022-07-23T08:34:51;101738.22;;;17.60;82.79
29163;BME280;20331;53.144;8.208;2022-07-23T08:45:13;101728.06;;;18.09;78.05
29163;BME280;20331;53.144;8.208;2022-07-23T08:55:37;101727.97;;;18.42;76.19
29163;BME280;20331;53.144;8.208;2022-07-23T09:05:59;101727.59;;;18.46;73.05
29163;BME280;20331;53.144;8.208;2022-07-23T09:16:30;101720.72;;;18.96;70.88
29163;BME280;20331;53.144;8.208;2022-07-23T09:26:52;101720.97;;;18.72;70.60
29163;BME280;20331;53.144;8.208;2022-07-23T09:37:17;101732.88;;;19.28;70.37
29163;BME280;20331;53.144;8.208;2022-07-23T09:47:39;101724.94;;;19.28;74.79
29163;BME280;20331;53.144;8.208;2022-07-23T09:58:01;101739.06;;;19.87;69.08
29163;BME280;20331;53.144;8.208;2022-07-23T10:08:23;101734.41;;;20.19;67.44
29163;BME280;20331;53.144;8.208;2022-07-23T10:18:46;101750.28;;;20.00;66.63
29163;BME280;20331;53.144;8.208;2022-07-23T10:29:12;101750.91;;;19.92;66.47
29163;BME280;20331;53.144;8.208;2022-07-23T10:39:35;101742.47;;;20.17;61.60
29163;BME280;20331;53.144;8.208;2022-07-23T10:50:25;101743.63;;;20.52;61.50
29163;BME280;20331;53.144;8.208;2022-07-23T11:00:51;101748.28;;;21.25;60.68
29163;BME280;20331;53.144;8.208;2022-07-23T11:11:13;101742.06;;;21.43;58.92
29163;BME280;20331;53.144;8.208;2022-07-23T11:32:05;101757.28;;;20.48;58.28
29163;BME280;20331;53.144;8.208;2022-07-23T11:42:27;101760.59;;;21.89;54.45
29163;BME280;20331;53.144;8.208;2022-07-23T11:52:53;101740.63;;;21.58;53.39
29163;BME280;20331;53.144;8.208;2022-07-23T12:03:15;101753.69;;;20.87;55.43
29163;BME280;20331;53.144;8.208;2022-07-23T12:13:37;101756.22;;;21.25;56.10
29163;BME280;20331;53.144;8.208;2022-07-23T12:24:06;101753.59;;;21.15;55.46
29163;BME280;20331;53.144;8.208;2022-07-23T12:34:28;101752.41;;;21.36;55.50
29163;BME280;20331;53.144;8.208;2022-07-23T12:45:10;101766.59;;;21.18;54.15
29163;BME280;20331;53.144;8.208;2022-07-23T12:55:33;101760.59;;;21.16;56.06
29163;BME280;20331;53.144;8.208;2022-07-23T13:06:15;101774.38;;;21.20;56.92
29163;BME280;20331;53.144;8.208;2022-07-23T13:16:37;101776.69;;;21.51;56.42
29163;BME280;20331;53.144;8.208;2022-07-23T13:26:58;101776.22;;;21.19;57.62
29163;BME280;20331;53.144;8.208;2022-07-23T13:37:21;101784.00;;;21.30;54.53
29163;BME280;20331;53.144;8.208;2022-07-23T13:47:45;101779.22;;;21.79;55.23
29163;BME280;20331;53.144;8.208;2022-07-23T13:58:08;101770.72;;;21.76;56.32
29163;BME280;20331;53.144;8.208;2022-07-23T14:08:30;101785.56;;;21.69;55.83
29163;BME280;20331;53.144;8.208;2022-07-23T14:18:53;101784.41;;;21.35;56.23
29163;BME280;20331;53.144;8.208;2022-07-23T14:29:14;101784.97;;;21.75;55.23
29163;BME280;20331;53.144;8.208;2022-07-23T14:39:38;101784.72;;;21.68;54.25
29163;BME280;20331;53.144;8.208;2022-07-23T14:49:59;101786.56;;;21.95;55.05
29163;BME280;20331;53.144;8.208;2022-07-23T15:00:21;101787.53;;;21.67;53.80
29163;BME280;20331;53.144;8.208;2022-07-23T15:10:44;101777.28;;;21.99;55.39
29163;BME280;20331;53.144;8.208;2022-07-23T15:21:06;101791.25;;;22.01;56.04
29163;BME280;20331;53.144;8.208;2022-07-23T15:31:29;101771.41;;;21.78;56.74
29163;BME280;20331;53.144;8.208;2022-07-23T15:41:51;101773.28;;;21.95;57.65
29163;BME280;20331;53.144;8.208;2022-07-23T15:52:12;101777.38;;;21.89;58.53
29163;BME280;20331;53.144;8.208;2022-07-23T16:02:34;101780.28;;;22.13;55.42
29163;BME280;20331;53.144;8.208;2022-07-23T16:12:56;101778.97;;;22.79;55.79
29163;BME280;20331;53.144;8.208;2022-07-23T16:23:18;101778.81;;;22.45;57.57
29163;BME280;20331;53.144;8.208;2022-07-23T16:33:40;101779.81;;;22.79;53.28
29163;BME280;20331;53.144;8.208;2022-07-23T16:44:01;101778.97;;;24.22;50.81
29163;BME280;20331;53.144;8.208;2022-07-23T16:54:24;101797.00;;;23.53;53.63
29163;BME280;20331;53.144;8.208;2022-07-23T17:04:46;101785.72;;;23.08;54.43
29163;BME280;20331;53.144;8.208;2022-07-23T17:15:08;101802.94;;;23.04;53.84
29163;BME280;20331;53.144;8.208;2022-07-23T17:25:29;101801.59;;;23.18;54.91
29163;BME280;20331;53.144;8.208;2022-07-23T17:35:51;101793.63;;;22.83;55.72
29163;BME280;20331;53.144;8.208;2022-07-23T17:46:14;101797.56;;;22.27;56.55
29163;BME280;20331;53.144;8.208;2022-07-23T17:56:35;101793.19;;;22.08;57.78
29163;BME280;20331;53.144;8.208;2022-07-23T18:06:57;101790.34;;;21.56;58.91
29163;BME280;20331;53.144;8.208;2022-07-23T18:17:19;101797.28;;;21.76;61.96
29163;BME280;20331;53.144;8.208;2022-07-23T18:27:41;101796.41;;;21.39;60.99
29163;BME280;20331;53.144;8.208;2022-07-23T18:38:08;101807.34;;;21.27;62.84
29163;BME280;20331;53.144;8.208;2022-07-23T18:48:30;101802.78;;;21.00;64.03
29163;BME280;20331;53.144;8.208;2022-07-23T18:58:52;101811.44;;;20.93;63.40
29163;BME280;20331;53.144;8.208;2022-07-23T19:09:13;101819.47;;;20.53;65.43
29163;BME280;20331;53.144;8.208;2022-07-23T19:19:36;101827.56;;;20.42;66.44
29163;BME280;20331;53.144;8.208;2022-07-23T19:29:58;101825.31;;;20.29;65.99
29163;BME280;20331;53.144;8.208;2022-07-23T19:40:20;101844.94;;;19.87;66.99
29163;BME280;20331;53.144;8.208;2022-07-23T19:50:41;101845.09;;;19.65;68.26
29163;BME280;20331;53.144;8.208;2022-07-23T20:01:03;101851.63;;;19.31;69.75
29163;BME280;20331;53.144;8.208;2022-07-23T20:11:25;101856.19;;;19.29;70.69
29163;BME280;20331;53.144;8.208;2022-07-23T20:21:50;101858.09;;;19.07;70.22
29163;BME280;20331;53.144;8.208;2022-07-23T20:32:12;101856.06;;;18.99;72.40
29163;BME280;20331;53.144;8.208;2022-07-23T20:42:33;101851.72;;;18.78;71.68
29163;BME280;20331;53.144;8.208;2022-07-23T20:52:58;101849.28;;;18.54;72.39
29163;BME280;20331;53.144;8.208;2022-07-23T21:03:19;101859.84;;;18.54;73.24
29163;BME280;20331;53.144;8.208;2022-07-23T21:13:41;101852.69;;;18.35;74.78
29163;BME280;20331;53.144;8.208;2022-07-23T21:24:03;101862.28;;;18.36;75.04
29163;BME280;20331;53.144;8.208;2022-07-23T21:34:25;101850.78;;;18.15;76.04
29163;BME280;20331;53.144;8.208;2022-07-23T21:44:47;101857.03;;;18.03;76.56
29163;BME280;20331;53.144;8.208;2022-07-23T21:55:09;101855.72;;;17.86;78.55
29163;BME280;20331;53.144;8.208;2022-07-23T22:05:31;101848.41;;;17.79;79.16
29163;BME280;20331;53.144;8.208;2022-07-23T22:15:53;101853.31;;;17.72;79.90
29163;BME280;20331;53.144;8.208;2022-07-23T22:26:15;101848.34;;;17.35;81.69
29163;BME280;20331;53.144;8.208;2022-07-23T22:36:37;101837.94;;;17.44;81.40
29163;BME280;20331;53.144;8.208;2022-07-23T22:46:59;101845.25;;;17.41;81.63
29163;BME280;20331;53.144;8.208;2022-07-23T22:57:20;101833.63;;;17.33;82.41
29163;BME280;20331;53.144;8.208;2022-07-23T23:07:42;101834.44;;;17.33;81.93
29163;BME280;20331;53.144;8.208;2022-07-23T23:18:03;101832.13;;;17.18;82.83
29163;BME280;20331;53.144;8.208;2022-07-23T23:28:25;101832.69;;;17.10;83.05
29163;BME280;20331;53.144;8.208;2022-07-23T23:38:47;101813.09;;;16.80;84.94
29163;BME280;20331;53.144;8.208;2022-07-23T23:49:09;101814.69;;;17.04;83.20
29163;BME280;20331;53.144;8.208;2022-07-23T23:59:31;101811.44;;;16.90;84.03
